TimeCST,TemperatureF,Dew PointF,Humidity,Sea Level PressureIn,VisibilityMPH,Wind Direction,Wind SpeedMPH,Gust SpeedMPH,PrecipitationIn,Events,Conditions,WindDirDegrees,DateUTC
12:15 AM,35.8,31.6,85,30.41,10.0,NNW,6.9,-,N/A,,Clear,330,2012-11-16 06:15:00
12:35 AM,35.6,31.6,85,30.41,10.0,NW,4.6,-,N/A,,Clear,320,2012-11-16 06:35:00
12:55 AM,35.6,31.6,85,30.41,10.0,NNW,6.9,-,N/A,,Clear,330,2012-11-16 06:55:00
1:15 AM,34.3,31.1,88,30.41,10.0,NNW,6.9,-,N/A,,Clear,330,2012-11-16 07:15:00
1:35 AM,33.6,30.6,89,30.41,10.0,NW,6.9,-,N/A,,Clear,320,2012-11-16 07:35:00
1:55 AM,32.9,30.2,90,30.41,10.0,NNW,8.1,-,N/A,,Clear,330,2012-11-16 07:55:00
2:15 AM,33.4,30.9,90,30.41,10.0,NNW,9.2,-,N/A,,Clear,330,2012-11-16 08:15:00
2:35 AM,32.5,29.8,90,30.41,10.0,NW,6.9,-,N/A,,Clear,320,2012-11-16 08:35:00
2:55 AM,32.0,29.5,90,30.42,10.0,NNW,3.5,-,N/A,,Clear,330,2012-11-16 08:55:00
3:15 AM,31.8,29.1,90,30.43,10.0,NNW,5.8,-,N/A,,Clear,330,2012-11-16 09:15:00
3:35 AM,31.8,29.1,90,30.42,10.0,NNW,8.1,-,N/A,,Clear,340,2012-11-16 09:35:00
3:55 AM,31.3,28.9,91,30.42,10.0,NNW,6.9,-,N/A,,Clear,330,2012-11-16 09:55:00
4:15 AM,31.1,28.8,91,30.42,10.0,NNW,5.8,-,N/A,,Clear,330,2012-11-16 10:15:00
4:35 AM,30.7,28.0,90,30.43,10.0,NW,4.6,-,N/A,,Clear,320,2012-11-16 10:35:00
4:55 AM,29.8,27.1,90,30.43,10.0,NNW,4.6,-,N/A,,Clear,330,2012-11-16 10:55:00
5:15 AM,28.9,26.4,90,30.43,10.0,Calm,Calm,-,N/A,,Clear,0,2012-11-16 11:15:00
5:35 AM,29.1,26.8,91,30.43,10.0,Calm,Calm,-,N/A,,Clear,0,2012-11-16 11:35:00
5:55 AM,28.4,26.2,92,30.43,10.0,NW,3.5,-,N/A,,Clear,310,2012-11-16 11:55:00
6:15 AM,27.7,25.5,92,30.43,7.0,NW,3.5,-,N/A,,Clear,310,2012-11-16 12:15:00
6:35 AM,27.1,25.0,92,30.43,10.0,Calm,Calm,-,N/A,,Clear,0,2012-11-16 12:35:00
6:55 AM,27.5,25.7,93,30.43,7.0,NNW,3.5,-,N/A,,Clear,340,2012-11-16 12:55:00
7:15 AM,26.6,24.8,93,30.43,7.0,NNW,5.8,-,N/A,,Clear,330,2012-11-16 13:15:00
7:35 AM,27.9,25.7,92,30.44,7.0,NNW,4.6,-,N/A,,Clear,330,2012-11-16 13:35:00
7:55 AM,28.8,26.4,91,30.44,7.0,NW,3.5,-,N/A,,Clear,320,2012-11-16 13:55:00
8:15 AM,30.6,27.5,88,30.45,10.0,NW,3.5,-,N/A,,Clear,310,2012-11-16 14:15:00
8:35 AM,32.0,28.4,87,30.45,10.0,NNW,3.5,-,N/A,,Clear,330,2012-11-16 14:35:00
8:55 AM,33.6,29.1,84,30.45,10.0,Calm,Calm,-,N/A,,Clear,0,2012-11-16 14:55:00
9:15 AM,35.8,30.2,80,30.45,10.0,Calm,Calm,-,N/A,,Clear,0,2012-11-16 15:15:00
9:35 AM,37.4,31.3,79,30.45,10.0,Calm,Calm,-,N/A,,Clear,0,2012-11-16 15:35:00
9:55 AM,39.2,31.8,75,30.45,10.0,Calm,Calm,-,N/A,,Clear,0,2012-11-16 15:55:00
10:15 AM,40.5,32.2,72,30.45,10.0,Calm,Calm,-,N/A,,Clear,0,2012-11-16 16:15:00
10:35 AM,43.3,33.8,69,30.46,10.0,Calm,Calm,-,N/A,,Clear,0,2012-11-16 16:35:00
10:55 AM,45.7,34.7,65,30.46,10.0,Calm,Calm,-,N/A,,Clear,0,2012-11-16 16:55:00
11:15 AM,47.5,35.4,63,30.45,10.0,Calm,Calm,-,N/A,,Clear,0,2012-11-16 17:15:00
11:35 AM,49.1,36.0,61,30.45,10.0,Calm,Calm,-,N/A,,Clear,0,2012-11-16 17:35:00
11:55 AM,50.9,35.4,55,30.44,10.0,Calm,Calm,-,N/A,,Clear,0,2012-11-16 17:55:00
12:15 PM,52.3,35.8,53,30.44,10.0,Calm,Calm,-,N/A,,Clear,0,2012-11-16 18:15:00
12:35 PM,53.1,34.2,49,30.43,10.0,Calm,Calm,-,N/A,,Clear,0,2012-11-16 18:35:00
12:55 PM,54.0,34.0,47,30.42,10.0,Calm,Calm,-,N/A,,Clear,0,2012-11-16 18:55:00
1:15 PM,55.4,33.3,43,30.41,10.0,Calm,Calm,-,N/A,,Clear,0,2012-11-16 19:15:00
1:35 PM,55.8,33.4,43,30.41,10.0,Calm,Calm,-,N/A,,Clear,0,2012-11-16 19:35:00
1:55 PM,55.8,31.3,39,30.40,10.0,Calm,Calm,-,N/A,,Clear,0,2012-11-16 19:55:00
2:15 PM,55.8,31.3,39,30.39,10.0,Calm,Calm,-,N/A,,Clear,0,2012-11-16 20:15:00
2:35 PM,56.1,30.2,37,30.39,10.0,Calm,Calm,-,N/A,,Clear,0,2012-11-16 20:35:00
2:55 PM,56.7,31.3,38,30.39,10.0,Calm,Calm,-,N/A,,Clear,0,2012-11-16 20:55:00
3:15 PM,56.3,30.0,37,30.39,10.0,Calm,Calm,-,N/A,,Clear,0,2012-11-16 21:15:00
3:35 PM,56.3,30.0,37,30.39,10.0,Calm,Calm,-,N/A,,Clear,0,2012-11-16 21:35:00
3:55 PM,55.8,31.1,39,30.38,10.0,South,4.6,-,N/A,,Clear,180,2012-11-16 21:55:00
4:15 PM,54.5,31.8,42,30.38,10.0,Calm,Calm,-,N/A,,Clear,0,2012-11-16 22:15:00
4:35 PM,52.0,31.8,46,30.38,10.0,Calm,Calm,-,N/A,,Clear,0,2012-11-16 22:35:00
4:55 PM,49.5,31.8,51,30.38,10.0,SSE,3.5,-,N/A,,Clear,150,2012-11-16 22:55:00
5:15 PM,48.4,31.1,51,30.37,10.0,SSE,3.5,-,N/A,,Clear,150,2012-11-16 23:15:00
5:35 PM,47.7,30.7,52,30.37,10.0,SE,3.5,-,N/A,,Clear,140,2012-11-16 23:35:00
5:55 PM,45.9,30.6,55,30.37,10.0,SE,4.6,-,N/A,,Clear,130,2012-11-16 23:55:00
6:15 PM,44.2,30.7,59,30.37,10.0,SE,4.6,-,N/A,,Clear,130,2012-11-17 00:15:00
6:35 PM,44.6,30.2,57,30.37,10.0,SE,4.6,-,N/A,,Clear,140,2012-11-17 00:35:00
6:55 PM,44.8,30.0,56,30.37,10.0,SE,3.5,-,N/A,,Clear,140,2012-11-17 00:55:00
7:15 PM,43.2,30.2,60,30.37,10.0,SE,3.5,-,N/A,,Clear,130,2012-11-17 01:15:00
7:55 PM,41.4,30.4,65,30.36,10.0,SE,4.6,-,N/A,,Clear,140,2012-11-17 01:55:00
8:15 PM,41.2,30.2,65,30.36,10.0,SE,4.6,-,N/A,,Clear,140,2012-11-17 02:15:00
8:35 PM,40.1,30.2,68,30.36,10.0,SE,5.8,-,N/A,,Clear,130,2012-11-17 02:35:00
8:55 PM,39.2,30.4,71,30.37,10.0,SE,4.6,-,N/A,,Clear,140,2012-11-17 02:55:00
9:15 PM,38.8,30.9,73,30.36,10.0,SE,6.9,-,N/A,,Clear,130,2012-11-17 03:15:00
9:55 PM,37.8,31.1,77,30.37,10.0,SSE,4.6,-,N/A,,Clear,150,2012-11-17 03:55:00
10:15 PM,37.6,30.7,76,30.37,10.0,SE,5.8,-,N/A,,Clear,140,2012-11-17 04:15:00
10:35 PM,37.4,30.7,77,30.36,10.0,SE,5.8,-,N/A,,Clear,140,2012-11-17 04:35:00
10:55 PM,37.9,31.1,76,30.37,10.0,SSE,5.8,-,N/A,,Clear,150,2012-11-17 04:55:00
11:15 PM,38.7,31.3,75,30.37,10.0,South,5.8,-,N/A,,Clear,170,2012-11-17 05:15:00
11:35 PM,37.2,30.9,78,30.38,10.0,SSE,4.6,-,N/A,,Clear,150,2012-11-17 05:35:00
11:55 PM,37.0,31.3,80,30.37,10.0,SE,8.1,-,N/A,,Clear,140,2012-11-17 05:55:00